sensor_id;sensor_type;location;lat;lon;timestamp;P1;durP1;ratioP1;P2;durP2;ratioP2
46447;SDS011;32145;50.390;30.778;2023-05-20T00:01:57;8.50;;;5.95;;
46447;SDS011;32145;50.390;30.778;2023-05-20T00:04:51;11.95;;;6.22;;
46447;SDS011;32145;50.390;30.778;2023-05-20T00:07:48;8.98;;;5.88;;
46447;SDS011;32145;50.390;30.778;2023-05-20T00:10:44;9.60;;;6.45;;
46447;SDS011;32145;50.390;30.778;2023-05-20T00:13:39;9.00;;;5.97;;
46447;SDS011;32145;50.390;30.778;2023-05-20T00:16:34;8.82;;;6.13;;
46447;SDS011;32145;50.390;30.778;2023-05-20T00:19:28;8.43;;;6.30;;
46447;SDS011;32145;50.390;30.778;2023-05-20T00:22:22;8.15;;;5.85;;
46447;SDS011;32145;50.390;30.778;2023-05-20T00:25:16;9.18;;;6.38;;
46447;SDS011;32145;50.390;30.778;2023-05-20T00:28:11;8.02;;;6.40;;
46447;SDS011;32145;50.390;30.778;2023-05-20T00:31:06;9.88;;;6.18;;
46447;SDS011;32145;50.390;30.778;2023-05-20T00:34:01;8.88;;;5.85;;
46447;SDS011;32145;50.390;30.778;2023-05-20T00:36:55;7.10;;;5.50;;
46447;SDS011;32145;50.390;30.778;2023-05-20T00:39:50;8.88;;;6.00;;
46447;SDS011;32145;50.390;30.778;2023-05-20T00:42:44;12.45;;;5.68;;
46447;SDS011;32145;50.390;30.778;2023-05-20T00:45:38;7.47;;;5.63;;
46447;SDS011;32145;50.390;30.778;2023-05-20T00:48:39;7.57;;;5.70;;
46447;SDS011;32145;50.390;30.778;2023-05-20T00:51:35;10.68;;;6.00;;
46447;SDS011;32145;50.390;30.778;2023-05-20T00:54:29;8.25;;;5.32;;
46447;SDS011;32145;50.390;30.778;2023-05-20T00:57:24;9.57;;;5.93;;
46447;SDS011;32145;50.390;30.778;2023-05-20T01:00:18;7.47;;;5.88;;
46447;SDS011;32145;50.390;30.778;2023-05-20T01:03:12;7.25;;;5.75;;
46447;SDS011;32145;50.390;30.778;2023-05-20T01:06:10;11.13;;;5.97;;
46447;SDS011;32145;50.390;30.778;2023-05-20T01:09:06;9.63;;;5.88;;
46447;SDS011;32145;50.390;30.778;2023-05-20T01:12:04;7.35;;;5.57;;
46447;SDS011;32145;50.390;30.778;2023-05-20T01:15:07;7.10;;;5.70;;
46447;SDS011;32145;50.390;30.778;2023-05-20T01:18:04;7.93;;;5.50;;
46447;SDS011;32145;50.390;30.778;2023-05-20T01:21:01;10.90;;;5.93;;
46447;SDS011;32145;50.390;30.778;2023-05-20T01:23:59;8.30;;;6.18;;
46447;SDS011;32145;50.390;30.778;2023-05-20T01:26:53;7.63;;;5.60;;
46447;SDS011;32145;50.390;30.778;2023-05-20T01:29:49;7.15;;;5.60;;
46447;SDS011;32145;50.390;30.778;2023-05-20T01:32:48;10.13;;;5.45;;
46447;SDS011;32145;50.390;30.778;2023-05-20T01:35:47;7.50;;;5.50;;
46447;SDS011;32145;50.390;30.778;2023-05-20T01:38:43;7.32;;;5.35;;
46447;SDS011;32145;50.390;30.778;2023-05-20T01:41:42;7.55;;;5.43;;
46447;SDS011;32145;50.390;30.778;2023-05-20T01:44:39;7.67;;;5.60;;
46447;SDS011;32145;50.390;30.778;2023-05-20T01:47:35;7.28;;;5.35;;
46447;SDS011;32145;50.390;30.778;2023-05-20T01:50:30;7.60;;;5.18;;
46447;SDS011;32145;50.390;30.778;2023-05-20T01:53:24;6.47;;;5.20;;
46447;SDS011;32145;50.390;30.778;2023-05-20T01:56:18;7.25;;;5.25;;
46447;SDS011;32145;50.390;30.778;2023-05-20T01:59:14;8.00;;;5.50;;
46447;SDS011;32145;50.390;30.778;2023-05-20T02:02:10;7.45;;;5.03;;
46447;SDS011;32145;50.390;30.778;2023-05-20T02:05:07;6.85;;;5.03;;
46447;SDS011;32145;50.390;30.778;2023-05-20T02:08:04;7.97;;;4.80;;
46447;SDS011;32145;50.390;30.778;2023-05-20T02:11:00;7.13;;;5.00;;
46447;SDS011;32145;50.390;30.778;2023-05-20T02:13:57;7.03;;;4.93;;
46447;SDS011;32145;50.390;30.778;2023-05-20T02:16:54;6.13;;;4.82;;
46447;SDS011;32145;50.390;30.778;2023-05-20T02:19:51;7.32;;;4.97;;
46447;SDS011;32145;50.390;30.778;2023-05-20T02:22:47;6.82;;;5.25;;
46447;SDS011;32145;50.390;30.778;2023-05-20T02:25:44;9.02;;;5.40;;
46447;SDS011;32145;50.390;30.778;2023-05-20T02:28:40;6.78;;;5.00;;
46447;SDS011;32145;50.390;30.778;2023-05-20T02:31:36;7.15;;;4.85;;
46447;SDS011;32145;50.390;30.778;2023-05-20T02:34:32;6.63;;;4.95;;
46447;SDS011;32145;50.390;30.778;2023-05-20T02:37:26;5.93;;;4.40;;
46447;SDS011;32145;50.390;30.778;2023-05-20T02:40:21;8.57;;;4.85;;
46447;SDS011;32145;50.390;30.778;2023-05-20T02:43:15;7.35;;;4.35;;
46447;SDS011;32145;50.390;30.778;2023-05-20T02:46:09;10.50;;;4.97;;
46447;SDS011;32145;50.390;30.778;2023-05-20T02:49:04;9.82;;;4.88;;
46447;SDS011;32145;50.390;30.778;2023-05-20T02:52:01;6.22;;;4.30;;
46447;SDS011;32145;50.390;30.778;2023-05-20T02:54:58;5.75;;;4.53;;
46447;SDS011;32145;50.390;30.778;2023-05-20T02:57:54;7.32;;;4.70;;
46447;SDS011;32145;50.390;30.778;2023-05-20T03:00:50;9.25;;;4.72;;
46447;SDS011;32145;50.390;30.778;2023-05-20T03:03:47;6.85;;;4.78;;
46447;SDS011;32145;50.390;30.778;2023-05-20T03:06:43;6.07;;;4.97;;
46447;SDS011;32145;50.390;30.778;2023-05-20T03:09:41;6.68;;;4.75;;
46447;SDS011;32145;50.390;30.778;2023-05-20T03:12:37;9.52;;;4.90;;
46447;SDS011;32145;50.390;30.778;2023-05-20T03:15:34;7.72;;;4.43;;
46447;SDS011;32145;50.390;30.778;2023-05-20T03:18:30;8.48;;;5.38;;
46447;SDS011;32145;50.390;30.778;2023-05-20T03:21:26;7.45;;;4.85;;
46447;SDS011;32145;50.390;30.778;2023-05-20T03:24:23;6.75;;;4.32;;
46447;SDS011;32145;50.390;30.778;2023-05-20T03:27:20;8.63;;;4.85;;
46447;SDS011;32145;50.390;30.778;2023-05-20T03:30:17;5.90;;;4.60;;
46447;SDS011;32145;50.390;30.778;2023-05-20T03:33:13;7.60;;;4.68;;
46447;SDS011;32145;50.390;30.778;2023-05-20T03:36:09;7.60;;;5.03;;
46447;SDS011;32145;50.390;30.778;2023-05-20T03:39:06;6.85;;;5.43;;
46447;SDS011;32145;50.390;30.778;2023-05-20T03:42:02;7.95;;;4.70;;
46447;SDS011;32145;50.390;30.778;2023-05-20T03:45:01;5.57;;;4.60;;
46447;SDS011;32145;50.390;30.778;2023-05-20T03:47:57;8.82;;;5.60;;
46447;SDS011;32145;50.390;30.778;2023-05-20T03:50:53;11.00;;;5.00;;
46447;SDS011;32145;50.390;30.778;2023-05-20T03:53:49;7.82;;;4.80;;
46447;SDS011;32145;50.390;30.778;2023-05-20T03:56:46;6.18;;;4.88;;
46447;SDS011;32145;50.390;30.778;2023-05-20T03:59:42;6.03;;;4.85;;
46447;SDS011;32145;50.390;30.778;2023-05-20T04:02:40;6.82;;;5.13;;
46447;SDS011;32145;50.390;30.778;2023-05-20T04:05:36;6.50;;;5.00;;
46447;SDS011;32145;50.390;30.778;2023-05-20T04:08:33;6.38;;;4.97;;
46447;SDS011;32145;50.390;30.778;2023-05-20T04:11:29;6.63;;;4.95;;
46447;SDS011;32145;50.390;30.778;2023-05-20T04:14:25;10.68;;;5.25;;
46447;SDS011;32145;50.390;30.778;2023-05-20T04:17:22;7.45;;;5.47;;
46447;SDS011;32145;50.390;30.778;2023-05-20T04:20:19;9.45;;;5.53;;
46447;SDS011;32145;50.390;30.778;2023-05-20T04:23:16;7.22;;;4.90;;
46447;SDS011;32145;50.390;30.778;2023-05-20T04:26:12;7.35;;;5.30;;
46447;SDS011;32145;50.390;30.778;2023-05-20T04:29:08;6.90;;;5.00;;
46447;SDS011;32145;50.390;30.778;2023-05-20T04:32:05;10.00;;;5.13;;
46447;SDS011;32145;50.390;30.778;2023-05-20T04:35:01;8.00;;;5.40;;
46447;SDS011;32145;50.390;30.778;2023-05-20T04:37:59;6.78;;;4.85;;
46447;SDS011;32145;50.390;30.778;2023-05-20T04:40:54;7.32;;;5.63;;
46447;SDS011;32145;50.390;30.778;2023-05-20T04:43:48;7.50;;;5.50;;
46447;SDS011;32145;50.390;30.778;2023-05-20T04:46:43;6.90;;;5.07;;
46447;SDS011;32145;50.390;30.778;2023-05-20T04:49:37;7.35;;;5.22;;
46447;SDS011;32145;50.390;30.778;2023-05-20T04:52:31;8.57;;;5.60;;
46447;SDS011;32145;50.390;30.778;2023-05-20T04:55:27;6.10;;;4.90;;
46447;SDS011;32145;50.390;30.778;2023-05-20T04:58:24;9.88;;;5.50;;
46447;SDS011;32145;50.390;30.778;2023-05-20T05:01:20;6.45;;;4.95;;
46447;SDS011;32145;50.390;30.778;2023-05-20T05:04:16;7.32;;;5.05;;
46447;SDS011;32145;50.390;30.778;2023-05-20T05:07:13;7.05;;;5.07;;
46447;SDS011;32145;50.390;30.778;2023-05-20T05:10:10;5.43;;;4.50;;
46447;SDS011;32145;50.390;30.778;2023-05-20T05:13:08;6.75;;;4.38;;
46447;SDS011;32145;50.390;30.778;2023-05-20T05:16:04;6.75;;;4.72;;
46447;SDS011;32145;50.390;30.778;2023-05-20T05:19:01;8.02;;;4.93;;
46447;SDS011;32145;50.390;30.778;2023-05-20T05:21:57;8.55;;;4.95;;
46447;SDS011;32145;50.390;30.778;2023-05-20T05:24:53;6.88;;;4.57;;
46447;SDS011;32145;50.390;30.778;2023-05-20T05:27:50;5.93;;;4.55;;
46447;SDS011;32145;50.390;30.778;2023-05-20T05:30:47;7.32;;;4.28;;
46447;SDS011;32145;50.390;30.778;2023-05-20T05:33:43;5.93;;;4.63;;
46447;SDS011;32145;50.390;30.778;2023-05-20T05:36:40;11.95;;;4.72;;
46447;SDS011;32145;50.390;30.778;2023-05-20T05:39:36;5.20;;;4.05;;
46447;SDS011;32145;50.390;30.778;2023-05-20T05:42:32;4.80;;;4.00;;
46447;SDS011;32145;50.390;30.778;2023-05-20T05:45:29;7.10;;;4.43;;
46447;SDS011;32145;50.390;30.778;2023-05-20T05:48:24;6.35;;;4.50;;
46447;SDS011;32145;50.390;30.778;2023-05-20T05:51:18;5.68;;;4.28;;
46447;SDS011;32145;50.390;30.778;2023-05-20T05:54:13;5.53;;;4.35;;
46447;SDS011;32145;50.390;30.778;2023-05-20T05:57:07;7.35;;;4.70;;
46447;SDS011;32145;50.390;30.778;2023-05-20T06:00:04;4.90;;;3.83;;
46447;SDS011;32145;50.390;30.778;2023-05-20T06:03:01;7.47;;;4.20;;
46447;SDS011;32145;50.390;30.778;2023-05-20T06:05:59;7.97;;;4.43;;
46447;SDS011;32145;50.390;30.778;2023-05-20T06:08:55;5.53;;;4.38;;
46447;SDS011;32145;50.390;30.778;2023-05-20T06:11:52;6.35;;;4.65;;
46447;SDS011;32145;50.390;30.778;2023-05-20T06:14:48;6.03;;;4.60;;
46447;SDS011;32145;50.390;30.778;2023-05-20T06:17:44;7.32;;;4.45;;
46447;SDS011;32145;50.390;30.778;2023-05-20T06:20:41;6.72;;;4.07;;
46447;SDS011;32145;50.390;30.778;2023-05-20T06:23:38;4.88;;;3.88;;
46447;SDS011;32145;50.390;30.778;2023-05-20T06:26:35;5.47;;;4.03;;
46447;SDS011;32145;50.390;30.778;2023-05-20T06:29:31;6.57;;;4.50;;
46447;SDS011;32145;50.390;30.778;2023-05-20T06:32:27;5.75;;;4.35;;
46447;SDS011;32145;50.390;30.778;2023-05-20T06:35:23;5.72;;;4.05;;
46447;SDS011;32145;50.390;30.778;2023-05-20T06:38:20;6.20;;;3.53;;
46447;SDS011;32145;50.390;30.778;2023-05-20T06:41:15;4.90;;;3.58;;
46447;SDS011;32145;50.390;30.778;2023-05-20T06:44:10;6.90;;;4.07;;
46447;SDS011;32145;50.390;30.778;2023-05-20T06:47:04;6.03;;;3.80;;
46447;SDS011;32145;50.390;30.778;2023-05-20T06:49:58;6.60;;;3.72;;
46447;SDS011;32145;50.390;30.778;2023-05-20T06:52:52;5.97;;;3.58;;
46447;SDS011;32145;50.390;30.778;2023-05-20T06:55:47;5.38;;;3.47;;
46447;SDS011;32145;50.390;30.778;2023-05-20T06:58:42;7.15;;;3.50;;
46447;SDS011;32145;50.390;30.778;2023-05-20T07:01:36;4.28;;;3.28;;
46447;SDS011;32145;50.390;30.778;2023-05-20T07:04:31;9.07;;;3.75;;
46447;SDS011;32145;50.390;30.778;2023-05-20T07:07:25;5.03;;;3.47;;
46447;SDS011;32145;50.390;30.778;2023-05-20T07:10:20;5.45;;;3.65;;
46447;SDS011;32145;50.390;30.778;2023-05-20T07:13:14;7.32;;;3.72;;
46447;SDS011;32145;50.390;30.778;2023-05-20T07:16:09;7.25;;;3.92;;
46447;SDS011;32145;50.390;30.778;2023-05-20T07:19:03;4.85;;;3.50;;
46447;SDS011;32145;50.390;30.778;2023-05-20T07:21:58;6.32;;;3.33;;
46447;SDS011;32145;50.390;30.778;2023-05-20T07:24:54;6.93;;;3.90;;
46447;SDS011;32145;50.390;30.778;2023-05-20T07:27:51;7.43;;;4.20;;
46447;SDS011;32145;50.390;30.778;2023-05-20T07:30:45;5.85;;;3.92;;
46447;SDS011;32145;50.390;30.778;2023-05-20T07:33:41;5.95;;;3.70;;
46447;SDS011;32145;50.390;30.778;2023-05-20T07:36:37;5.57;;;3.70;;
46447;SDS011;32145;50.390;30.778;2023-05-20T07:39:33;5.93;;;3.58;;
46447;SDS011;32145;50.390;30.778;2023-05-20T07:42:30;5.97;;;3.83;;
46447;SDS011;32145;50.390;30.778;2023-05-20T07:45:26;6.55;;;3.75;;
46447;SDS011;32145;50.390;30.778;2023-05-20T07:48:22;6.70;;;3.78;;
46447;SDS011;32145;50.390;30.778;2023-05-20T07:51:20;7.13;;;3.65;;
46447;SDS011;32145;50.390;30.778;2023-05-20T07:54:16;5.35;;;3.53;;
46447;SDS011;32145;50.390;30.778;2023-05-20T07:57:12;8.27;;;3.58;;
46447;SDS011;32145;50.390;30.778;2023-05-20T08:00:09;5.53;;;3.55;;
46447;SDS011;32145;50.390;30.778;2023-05-20T08:03:06;6.50;;;3.60;;
46447;SDS011;32145;50.390;30.778;2023-05-20T08:06:03;7.32;;;3.50;;
46447;SDS011;32145;50.390;30.778;2023-05-20T08:09:01;6.35;;;3.33;;
46447;SDS011;32145;50.390;30.778;2023-05-20T08:11:57;4.07;;;3.10;;
46447;SDS011;32145;50.390;30.778;2023-05-20T08:14:53;4.57;;;3.20;;
46447;SDS011;32145;50.390;30.778;2023-05-20T08:17:49;8.10;;;3.75;;
46447;SDS011;32145;50.390;30.778;2023-05-20T08:20:46;7.28;;;3.60;;
46447;SDS011;32145;50.390;30.778;2023-05-20T08:23:42;6.60;;;3.20;;
46447;SDS011;32145;50.390;30.778;2023-05-20T08:26:40;5.88;;;3.22;;
46447;SDS011;32145;50.390;30.778;2023-05-20T08:29:36;6.40;;;3.50;;
46447;SDS011;32145;50.390;30.778;2023-05-20T08:32:32;4.65;;;3.30;;
46447;SDS011;32145;50.390;30.778;2023-05-20T08:35:29;5.03;;;3.15;;
46447;SDS011;32145;50.390;30.778;2023-05-20T08:38:25;5.15;;;2.92;;
46447;SDS011;32145;50.390;30.778;2023-05-20T08:41:22;5.50;;;3.13;;
46447;SDS011;32145;50.390;30.778;2023-05-20T08:44:19;5.18;;;3.60;;
46447;SDS011;32145;50.390;30.778;2023-05-20T08:47:17;4.90;;;3.00;;
46447;SDS011;32145;50.390;30.778;2023-05-20T08:50:14;4.20;;;2.50;;
46447;SDS011;32145;50.390;30.778;2023-05-20T08:53:10;5.65;;;2.63;;
46447;SDS011;32145;50.390;30.778;2023-05-20T08:56:05;6.88;;;2.75;;
46447;SDS011;32145;50.390;30.778;2023-05-20T08:59:02;3.90;;;2.55;;
46447;SDS011;32145;50.390;30.778;2023-05-20T09:01:58;5.78;;;2.70;;
46447;SDS011;32145;50.390;30.778;2023-05-20T09:04:52;3.58;;;2.30;;
46447;SDS011;32145;50.390;30.778;2023-05-20T09:07:46;9.57;;;2.38;;
46447;SDS011;32145;50.390;30.778;2023-05-20T09:10:40;6.57;;;2.50;;
46447;SDS011;32145;50.390;30.778;2023-05-20T09:13:35;3.78;;;2.35;;
46447;SDS011;32145;50.390;30.778;2023-05-20T09:16:29;4.57;;;2.20;;
46447;SDS011;32145;50.390;30.778;2023-05-20T09:19:27;5.28;;;2.67;;
46447;SDS011;32145;50.390;30.778;2023-05-20T09:22:24;4.65;;;2.30;;
46447;SDS011;32145;50.390;30.778;2023-05-20T09:25:21;8.38;;;2.45;;
46447;SDS011;32145;50.390;30.778;2023-05-20T09:28:18;6.20;;;2.30;;
46447;SDS011;32145;50.390;30.778;2023-05-20T09:31:14;4.90;;;2.42;;
46447;SDS011;32145;50.390;30.778;2023-05-20T09:34:10;4.65;;;2.40;;
46447;SDS011;32145;50.390;30.778;2023-05-20T09:37:08;3.33;;;2.15;;
46447;SDS011;32145;50.390;30.778;2023-05-20T09:40:05;5.15;;;2.30;;
46447;SDS011;32145;50.390;30.778;2023-05-20T09:43:03;6.80;;;2.15;;
46447;SDS011;32145;50.390;30.778;2023-05-20T09:46:00;3.92;;;2.00;;
46447;SDS011;32145;50.390;30.778;2023-05-20T09:48:58;3.38;;;2.28;;
46447;SDS011;32145;50.390;30.778;2023-05-20T09:51:56;2.95;;;1.70;;
46447;SDS011;32145;50.390;30.778;2023-05-20T09:54:55;5.75;;;1.92;;
46447;SDS011;32145;50.390;30.778;2023-05-20T10:00:51;4.70;;;2.00;;
46447;SDS011;32145;50.390;30.778;2023-05-20T10:03:47;4.00;;;1.98;;
46447;SDS011;32145;50.390;30.778;2023-05-20T10:06:48;4.75;;;2.20;;
46447;SDS011;32145;50.390;30.778;2023-05-20T10:09:58;4.20;;;1.95;;
46447;SDS011;32145;50.390;30.778;2023-05-20T10:13:07;4.32;;;2.30;;
46447;SDS011;32145;50.390;30.778;2023-05-20T10:19:18;3.88;;;2.00;;
46447;SDS011;32145;50.390;30.778;2023-05-20T10:22:25;4.20;;;2.28;;
46447;SDS011;32145;50.390;30.778;2023-05-20T10:28:26;2.75;;;1.70;;
46447;SDS011;32145;50.390;30.778;2023-05-20T10:31:21;2.97;;;2.00;;
46447;SDS011;32145;50.390;30.778;2023-05-20T10:34:19;3.13;;;2.03;;
46447;SDS011;32145;50.390;30.778;2023-05-20T10:37:24;7.20;;;2.83;;
46447;SDS011;32145;50.390;30.778;2023-05-20T10:40:21;6.20;;;2.22;;
46447;SDS011;32145;50.390;30.778;2023-05-20T10:43:25;3.95;;;1.77;;
46447;SDS011;32145;50.390;30.778;2023-05-20T10:46:23;2.65;;;1.63;;
46447;SDS011;32145;50.390;30.778;2023-05-20T10:49:17;4.53;;;2.08;;
46447;SDS011;32145;50.390;30.778;2023-05-20T10:52:12;4.57;;;1.90;;
46447;SDS011;32145;50.390;30.778;2023-05-20T10:55:17;5.15;;;2.30;;
46447;SDS011;32145;50.390;30.778;2023-05-20T10:58:14;4.00;;;1.95;;
46447;SDS011;32145;50.390;30.778;2023-05-20T11:01:11;8.07;;;2.17;;
46447;SDS011;32145;50.390;30.778;2023-05-20T11:04:08;3.88;;;1.80;;
46447;SDS011;32145;50.390;30.778;2023-05-20T11:07:05;3.63;;;1.88;;
46447;SDS011;32145;50.390;30.778;2023-05-20T11:10:01;5.13;;;2.03;;
46447;SDS011;32145;50.390;30.778;2023-05-20T11:13:03;4.30;;;2.30;;
46447;SDS011;32145;50.390;30.778;2023-05-20T11:15:57;8.32;;;2.08;;
46447;SDS011;32145;50.390;30.778;2023-05-20T11:18:54;5.65;;;2.20;;
46447;SDS011;32145;50.390;30.778;2023-05-20T11:21:49;3.63;;;1.88;;
46447;SDS011;32145;50.390;30.778;2023-05-20T11:24:43;4.03;;;1.90;;
46447;SDS011;32145;50.390;30.778;2023-05-20T11:27:39;7.97;;;2.30;;
46447;SDS011;32145;50.390;30.778;2023-05-20T11:30:33;3.08;;;2.00;;
46447;SDS011;32145;50.390;30.778;2023-05-20T11:33:28;3.47;;;1.90;;
46447;SDS011;32145;50.390;30.778;2023-05-20T11:36:24;4.40;;;1.65;;
46447;SDS011;32145;50.390;30.778;2023-05-20T11:39:20;7.53;;;2.17;;
46447;SDS011;32145;50.390;30.778;2023-05-20T11:42:16;3.38;;;1.80;;
46447;SDS011;32145;50.390;30.778;2023-05-20T11:45:13;3.88;;;1.75;;
46447;SDS011;32145;50.390;30.778;2023-05-20T11:48:09;5.32;;;2.10;;
46447;SDS011;32145;50.390;30.778;2023-05-20T11:51:06;4.32;;;2.10;;
46447;SDS011;32145;50.390;30.778;2023-05-20T11:54:04;3.67;;;2.00;;
46447;SDS011;32145;50.390;30.778;2023-05-20T11:57:01;4.50;;;2.25;;
46447;SDS011;32145;50.390;30.778;2023-05-20T11:59:58;4.95;;;2.35;;
46447;SDS011;32145;50.390;30.778;2023-05-20T12:02:54;4.95;;;2.00;;
46447;SDS011;32145;50.390;30.778;2023-05-20T12:05:51;4.55;;;2.35;;
46447;SDS011;32145;50.390;30.778;2023-05-20T12:08:47;3.67;;;2.10;;
46447;SDS011;32145;50.390;30.778;2023-05-20T12:11:45;6.40;;;2.20;;
46447;SDS011;32145;50.390;30.778;2023-05-20T12:14:39;4.47;;;2.17;;
46447;SDS011;32145;50.390;30.778;2023-05-20T12:17:43;4.95;;;2.50;;
46447;SDS011;32145;50.390;30.778;2023-05-20T12:20:38;3.78;;;2.20;;
46447;SDS011;32145;50.390;30.778;2023-05-20T12:23:33;4.10;;;2.00;;
46447;SDS011;32145;50.390;30.778;2023-05-20T12:26:29;3.88;;;2.10;;
46447;SDS011;32145;50.390;30.778;2023-05-20T12:29:27;6.00;;;2.13;;
46447;SDS011;32145;50.390;30.778;2023-05-20T12:32:23;3.92;;;2.10;;
46447;SDS011;32145;50.390;30.778;2023-05-20T12:35:18;5.03;;;2.13;;
46447;SDS011;32145;50.390;30.778;2023-05-20T12:38:28;7.65;;;2.10;;
46447;SDS011;32145;50.390;30.778;2023-05-20T12:41:23;4.32;;;2.47;;
46447;SDS011;32145;50.390;30.778;2023-05-20T12:44:19;5.68;;;2.28;;
46447;SDS011;32145;50.390;30.778;2023-05-20T12:47:17;6.13;;;2.40;;
46447;SDS011;32145;50.390;30.778;2023-05-20T12:50:11;3.20;;;2.20;;
46447;SDS011;32145;50.390;30.778;2023-05-20T12:53:06;4.57;;;2.50;;
46447;SDS011;32145;50.390;30.778;2023-05-20T12:56:00;6.28;;;2.53;;
46447;SDS011;32145;50.390;30.778;2023-05-20T12:58:54;4.18;;;2.10;;
46447;SDS011;32145;50.390;30.778;2023-05-20T13:01:48;6.43;;;2.20;;
46447;SDS011;32145;50.390;30.778;2023-05-20T13:04:44;6.80;;;1.98;;
46447;SDS011;32145;50.390;30.778;2023-05-20T13:07:38;4.35;;;2.28;;
46447;SDS011;32145;50.390;30.778;2023-05-20T13:10:33;6.82;;;1.98;;
46447;SDS011;32145;50.390;30.778;2023-05-20T13:13:27;4.68;;;1.95;;
46447;SDS011;32145;50.390;30.778;2023-05-20T13:16:21;3.92;;;2.10;;
46447;SDS011;32145;50.390;30.778;2023-05-20T13:19:15;3.75;;;1.80;;
46447;SDS011;32145;50.390;30.778;2023-05-20T13:22:11;4.65;;;2.15;;
46447;SDS011;32145;50.390;30.778;2023-05-20T13:25:06;3.58;;;2.00;;
46447;SDS011;32145;50.390;30.778;2023-05-20T13:28:01;4.47;;;1.70;;
46447;SDS011;32145;50.390;30.778;2023-05-20T13:30:56;6.82;;;1.75;;
46447;SDS011;32145;50.390;30.778;2023-05-20T13:33:52;5.90;;;1.92;;
46447;SDS011;32145;50.390;30.778;2023-05-20T13:36:48;4.35;;;1.33;;
46447;SDS011;32145;50.390;30.778;2023-05-20T13:39:47;3.95;;;1.60;;
46447;SDS011;32145;50.390;30.778;2023-05-20T13:42:41;3.50;;;1.33;;
46447;SDS011;32145;50.390;30.778;2023-05-20T13:45:36;4.80;;;1.70;;
46447;SDS011;32145;50.390;30.778;2023-05-20T13:48:30;3.53;;;1.65;;
46447;SDS011;32145;50.390;30.778;2023-05-20T13:51:24;4.55;;;1.65;;
46447;SDS011;32145;50.390;30.778;2023-05-20T13:54:13;3.80;;;1.60;;
46447;SDS011;32145;50.390;30.778;2023-05-20T13:57:11;5.57;;;1.58;;
46447;SDS011;32145;50.390;30.778;2023-05-20T14:00:01;2.38;;;1.58;;
46447;SDS011;32145;50.390;30.778;2023-05-20T14:02:50;4.57;;;1.98;;
46447;SDS011;32145;50.390;30.778;2023-05-20T14:05:40;4.38;;;2.10;;
46447;SDS011;32145;50.390;30.778;2023-05-20T14:08:35;5.80;;;1.80;;
46447;SDS011;32145;50.390;30.778;2023-05-20T14:11:23;3.40;;;1.47;;
46447;SDS011;32145;50.390;30.778;2023-05-20T14:14:22;3.42;;;1.75;;
46447;SDS011;32145;50.390;30.778;2023-05-20T14:17:10;4.60;;;1.70;;
46447;SDS011;32145;50.390;30.778;2023-05-20T14:20:01;4.78;;;1.60;;
46447;SDS011;32145;50.390;30.778;2023-05-20T14:22:57;4.60;;;1.63;;
46447;SDS011;32145;50.390;30.778;2023-05-20T14:25:48;3.95;;;1.58;;
46447;SDS011;32145;50.390;30.778;2023-05-20T14:28:42;3.17;;;1.83;;
46447;SDS011;32145;50.390;30.778;2023-05-20T14:31:38;4.47;;;1.83;;
46447;SDS011;32145;50.390;30.778;2023-05-20T14:34:32;2.92;;;1.30;;
46447;SDS011;32145;50.390;30.778;2023-05-20T14:37:20;2.63;;;1.60;;
46447;SDS011;32145;50.390;30.778;2023-05-20T14:40:16;4.35;;;1.50;;
46447;SDS011;32145;50.390;30.778;2023-05-20T14:43:05;4.78;;;1.63;;
46447;SDS011;32145;50.390;30.778;2023-05-20T14:46:01;5.25;;;1.33;;
46447;SDS011;32145;50.390;30.778;2023-05-20T14:48:53;2.90;;;1.33;;
46447;SDS011;32145;50.390;30.778;2023-05-20T14:51:41;6.07;;;1.40;;
46447;SDS011;32145;50.390;30.778;2023-05-20T14:54:31;5.15;;;1.30;;
46447;SDS011;32145;50.390;30.778;2023-05-20T14:57:19;5.97;;;1.55;;
46447;SDS011;32145;50.390;30.778;2023-05-20T15:00:15;3.35;;;1.40;;
46447;SDS011;32145;50.390;30.778;2023-05-20T15:03:12;5.18;;;1.58;;
46447;SDS011;32145;50.390;30.778;2023-05-20T15:06:04;3.13;;;1.35;;
46447;SDS011;32145;50.390;30.778;2023-05-20T15:09:00;7.97;;;1.45;;
46447;SDS011;32145;50.390;30.778;2023-05-20T15:11:56;4.68;;;1.75;;
46447;SDS011;32145;50.390;30.778;2023-05-20T15:14:53;5.00;;;1.80;;
46447;SDS011;32145;50.390;30.778;2023-05-20T15:17:51;3.50;;;1.70;;
46447;SDS011;32145;50.390;30.778;2023-05-20T15:20:45;4.38;;;1.73;;
46447;SDS011;32145;50.390;30.778;2023-05-20T15:23:37;5.18;;;1.95;;
46447;SDS011;32145;50.390;30.778;2023-05-20T15:26:34;5.13;;;1.58;;
46447;SDS011;32145;50.390;30.778;2023-05-20T15:29:24;5.85;;;1.70;;
46447;SDS011;32145;50.390;30.778;2023-05-20T15:32:12;4.78;;;1.90;;
46447;SDS011;32145;50.390;30.778;2023-05-20T15:35:09;4.10;;;2.30;;
46447;SDS011;32145;50.390;30.778;2023-05-20T15:38:06;3.47;;;1.70;;
46447;SDS011;32145;50.390;30.778;2023-05-20T15:40:57;7.65;;;2.63;;
46447;SDS011;32145;50.390;30.778;2023-05-20T15:43:52;4.30;;;2.65;;
46447;SDS011;32145;50.390;30.778;2023-05-20T15:46:46;3.88;;;2.03;;
46447;SDS011;32145;50.390;30.778;2023-05-20T15:49:35;3.80;;;1.70;;
46447;SDS011;32145;50.390;30.778;2023-05-20T15:52:32;8.70;;;2.10;;
46447;SDS011;32145;50.390;30.778;2023-05-20T15:55:28;7.40;;;2.45;;
46447;SDS011;32145;50.390;30.778;2023-05-20T15:58:26;3.50;;;2.00;;
46447;SDS011;32145;50.390;30.778;2023-05-20T16:01:16;4.93;;;1.95;;
46447;SDS011;32145;50.390;30.778;2023-05-20T16:04:10;5.88;;;2.20;;
46447;SDS011;32145;50.390;30.778;2023-05-20T16:07:05;3.40;;;1.77;;
46447;SDS011;32145;50.390;30.778;2023-05-20T16:09:59;5.18;;;1.70;;
46447;SDS011;32145;50.390;30.778;2023-05-20T16:12:53;4.20;;;1.88;;
46447;SDS011;32145;50.390;30.778;2023-05-20T16:15:49;7.80;;;2.10;;
46447;SDS011;32145;50.390;30.778;2023-05-20T16:18:37;11.00;;;2.08;;
46447;SDS011;32145;50.390;30.778;2023-05-20T16:21:33;3.90;;;2.08;;
46447;SDS011;32145;50.390;30.778;2023-05-20T16:24:30;5.60;;;2.05;;
46447;SDS011;32145;50.390;30.778;2023-05-20T16:27:20;3.53;;;2.25;;
46447;SDS011;32145;50.390;30.778;2023-05-20T16:30:14;4.20;;;2.25;;
46447;SDS011;32145;50.390;30.778;2023-05-20T16:33:10;3.40;;;2.00;;
46447;SDS011;32145;50.390;30.778;2023-05-20T16:36:05;5.10;;;2.05;;
46447;SDS011;32145;50.390;30.778;2023-05-20T16:38:53;4.78;;;2.00;;
46447;SDS011;32145;50.390;30.778;2023-05-20T16:41:49;7.28;;;2.13;;
46447;SDS011;32145;50.390;30.778;2023-05-20T16:44:47;4.93;;;1.80;;
46447;SDS011;32145;50.390;30.778;2023-05-20T16:47:44;4.00;;;2.10;;
46447;SDS011;32145;50.390;30.778;2023-05-20T16:50:36;4.68;;;2.20;;
46447;SDS011;32145;50.390;30.778;2023-05-20T16:53:30;4.53;;;2.10;;
46447;SDS011;32145;50.390;30.778;2023-05-20T16:56:24;5.10;;;2.22;;
46447;SDS011;32145;50.390;30.778;2023-05-20T16:59:19;7.50;;;2.33;;
46447;SDS011;32145;50.390;30.778;2023-05-20T17:02:07;4.97;;;2.30;;
46447;SDS011;32145;50.390;30.778;2023-05-20T17:05:04;7.15;;;2.40;;
46447;SDS011;32145;50.390;30.778;2023-05-20T17:08:02;4.15;;;2.40;;
46447;SDS011;32145;50.390;30.778;2023-05-20T17:10:59;4.72;;;2.40;;
46447;SDS011;32145;50.390;30.778;2023-05-20T17:13:53;3.75;;;1.95;;
46447;SDS011;32145;50.390;30.778;2023-05-20T17:16:42;3.70;;;2.08;;
46447;SDS011;32145;50.390;30.778;2023-05-20T17:19:38;5.03;;;2.35;;
46447;SDS011;32145;50.390;30.778;2023-05-20T17:22:33;5.65;;;2.33;;
46447;SDS011;32145;50.390;30.778;2023-05-20T17:25:28;4.43;;;2.53;;
46447;SDS011;32145;50.390;30.778;2023-05-20T17:28:25;4.15;;;2.60;;
46447;SDS011;32145;50.390;30.778;2023-05-20T17:31:15;5.32;;;2.50;;